sensor_id;sensor_type;location;lat;lon;timestamp;P1;durP1;ratioP1;P2;durP2;ratioP2
63259;SDS011;49390;51.380;0.098;2023-12-28T00:00:21;15.10;;;3.45;;
63259;SDS011;49390;51.380;0.098;2023-12-28T00:03:08;13.65;;;3.70;;
63259;SDS011;49390;51.380;0.098;2023-12-28T00:05:36;13.80;;;4.13;;
63259;SDS011;49390;51.380;0.098;2023-12-28T00:08:04;19.30;;;4.15;;
63259;SDS011;49390;51.380;0.098;2023-12-28T00:10:32;17.67;;;3.58;;
63259;SDS011;49390;51.380;0.098;2023-12-28T00:13:00;21.15;;;4.20;;
63259;SDS011;49390;51.380;0.098;2023-12-28T00:15:28;16.45;;;3.67;;
63259;SDS011;49390;51.380;0.098;2023-12-28T00:17:55;16.52;;;4.05;;
63259;SDS011;49390;51.380;0.098;2023-12-28T00:20:24;16.40;;;4.22;;
63259;SDS011;49390;51.380;0.098;2023-12-28T00:22:51;20.83;;;4.40;;
63259;SDS011;49390;51.380;0.098;2023-12-28T00:25:20;19.35;;;4.63;;
63259;SDS011;49390;51.380;0.098;2023-12-28T00:27:47;27.10;;;4.63;;
63259;SDS011;49390;51.380;0.098;2023-12-28T00:30:15;16.88;;;3.80;;
63259;SDS011;49390;51.380;0.098;2023-12-28T00:32:44;19.50;;;3.60;;
63259;SDS011;49390;51.380;0.098;2023-12-28T00:35:13;19.33;;;4.30;;
63259;SDS011;49390;51.380;0.098;2023-12-28T00:37:41;17.48;;;4.88;;
63259;SDS011;49390;51.380;0.098;2023-12-28T00:40:09;15.15;;;3.67;;
63259;SDS011;49390;51.380;0.098;2023-12-28T00:42:37;16.67;;;3.65;;
63259;SDS011;49390;51.380;0.098;2023-12-28T00:45:08;25.23;;;5.10;;
63259;SDS011;49390;51.380;0.098;2023-12-28T00:47:37;16.13;;;4.65;;
63259;SDS011;49390;51.380;0.098;2023-12-28T00:50:05;15.30;;;3.70;;
63259;SDS011;49390;51.380;0.098;2023-12-28T00:52:33;16.40;;;4.25;;
63259;SDS011;49390;51.380;0.098;2023-12-28T00:55:01;20.30;;;4.07;;
63259;SDS011;49390;51.380;0.098;2023-12-28T00:57:29;20.92;;;4.53;;
63259;SDS011;49390;51.380;0.098;2023-12-28T00:59:57;24.33;;;4.60;;
63259;SDS011;49390;51.380;0.098;2023-12-28T01:02:26;15.20;;;3.97;;
63259;SDS011;49390;51.380;0.098;2023-12-28T01:04:54;17.60;;;3.63;;
63259;SDS011;49390;51.380;0.098;2023-12-28T01:07:22;18.38;;;4.53;;
63259;SDS011;49390;51.380;0.098;2023-12-28T01:09:51;19.15;;;4.22;;
63259;SDS011;49390;51.380;0.098;2023-12-28T01:12:18;16.13;;;3.80;;
63259;SDS011;49390;51.380;0.098;2023-12-28T01:14:46;20.58;;;4.25;;
63259;SDS011;49390;51.380;0.098;2023-12-28T01:17:14;21.05;;;4.38;;
63259;SDS011;49390;51.380;0.098;2023-12-28T01:19:42;21.15;;;5.15;;
63259;SDS011;49390;51.380;0.098;2023-12-28T01:22:11;13.00;;;3.67;;
63259;SDS011;49390;51.380;0.098;2023-12-28T01:24:39;26.73;;;4.57;;
63259;SDS011;49390;51.380;0.098;2023-12-28T01:27:06;22.50;;;4.75;;
63259;SDS011;49390;51.380;0.098;2023-12-28T01:29:34;18.75;;;4.00;;
63259;SDS011;49390;51.380;0.098;2023-12-28T01:32:02;22.60;;;5.95;;
63259;SDS011;49390;51.380;0.098;2023-12-28T01:34:31;16.23;;;4.30;;
63259;SDS011;49390;51.380;0.098;2023-12-28T01:36:59;19.05;;;4.28;;
63259;SDS011;49390;51.380;0.098;2023-12-28T01:39:27;17.45;;;4.70;;
63259;SDS011;49390;51.380;0.098;2023-12-28T01:41:54;17.98;;;4.70;;
63259;SDS011;49390;51.380;0.098;2023-12-28T01:44:22;20.90;;;4.28;;
63259;SDS011;49390;51.380;0.098;2023-12-28T01:46:50;14.13;;;4.03;;
63259;SDS011;49390;51.380;0.098;2023-12-28T01:49:18;20.73;;;3.92;;
63259;SDS011;49390;51.380;0.098;2023-12-28T01:51:46;22.73;;;4.85;;
63259;SDS011;49390;51.380;0.098;2023-12-28T01:54:16;20.23;;;3.70;;
63259;SDS011;49390;51.380;0.098;2023-12-28T01:56:44;13.82;;;3.58;;
63259;SDS011;49390;51.380;0.098;2023-12-28T01:59:12;16.58;;;4.28;;
63259;SDS011;49390;51.380;0.098;2023-12-28T02:01:41;26.80;;;5.05;;
63259;SDS011;49390;51.380;0.098;2023-12-28T02:04:09;21.13;;;4.43;;
63259;SDS011;49390;51.380;0.098;2023-12-28T02:06:37;17.58;;;4.13;;
63259;SDS011;49390;51.380;0.098;2023-12-28T02:09:05;18.17;;;4.03;;
63259;SDS011;49390;51.380;0.098;2023-12-28T02:11:34;19.73;;;4.50;;
63259;SDS011;49390;51.380;0.098;2023-12-28T02:14:03;23.17;;;4.80;;
63259;SDS011;49390;51.380;0.098;2023-12-28T02:16:32;16.45;;;4.00;;
63259;SDS011;49390;51.380;0.098;2023-12-28T02:19:17;17.67;;;4.40;;
63259;SDS011;49390;51.380;0.098;2023-12-28T02:22:07;16.48;;;3.65;;
63259;SDS011;49390;51.380;0.098;2023-12-28T02:27:45;20.73;;;4.88;;
63259;SDS011;49390;51.380;0.098;2023-12-28T02:30:16;21.95;;;5.05;;
63259;SDS011;49390;51.380;0.098;2023-12-28T02:32:56;20.98;;;4.25;;
63259;SDS011;49390;51.380;0.098;2023-12-28T02:35:55;16.45;;;5.18;;
63259;SDS011;49390;51.380;0.098;2023-12-28T02:38:26;18.35;;;3.80;;
63259;SDS011;49390;51.380;0.098;2023-12-28T02:40:56;18.63;;;4.50;;
63259;SDS011;49390;51.380;0.098;2023-12-28T02:43:25;16.70;;;3.83;;
63259;SDS011;49390;51.380;0.098;2023-12-28T02:45:53;20.60;;;4.18;;
63259;SDS011;49390;51.380;0.098;2023-12-28T02:48:21;17.10;;;4.40;;
63259;SDS011;49390;51.380;0.098;2023-12-28T02:50:49;15.90;;;4.03;;
63259;SDS011;49390;51.380;0.098;2023-12-28T02:53:17;24.70;;;5.30;;
63259;SDS011;49390;51.380;0.098;2023-12-28T02:55:45;17.80;;;4.20;;
63259;SDS011;49390;51.380;0.098;2023-12-28T02:58:13;18.75;;;4.43;;
63259;SDS011;49390;51.380;0.098;2023-12-28T03:00:41;15.65;;;4.40;;
63259;SDS011;49390;51.380;0.098;2023-12-28T03:03:08;15.45;;;4.00;;
63259;SDS011;49390;51.380;0.098;2023-12-28T03:05:36;14.93;;;3.80;;
63259;SDS011;49390;51.380;0.098;2023-12-28T03:08:04;16.35;;;3.58;;
63259;SDS011;49390;51.380;0.098;2023-12-28T03:10:34;19.73;;;4.47;;
63259;SDS011;49390;51.380;0.098;2023-12-28T03:13:01;16.23;;;3.97;;
63259;SDS011;49390;51.380;0.098;2023-12-28T03:15:29;20.35;;;5.07;;
63259;SDS011;49390;51.380;0.098;2023-12-28T03:17:57;18.60;;;4.35;;
63259;SDS011;49390;51.380;0.098;2023-12-28T03:20:25;23.05;;;4.60;;
63259;SDS011;49390;51.380;0.098;2023-12-28T03:22:53;24.95;;;4.53;;
63259;SDS011;49390;51.380;0.098;2023-12-28T03:25:21;22.25;;;5.68;;
63259;SDS011;49390;51.380;0.098;2023-12-28T03:27:48;19.02;;;4.15;;
63259;SDS011;49390;51.380;0.098;2023-12-28T03:30:17;18.33;;;4.80;;
63259;SDS011;49390;51.380;0.098;2023-12-28T03:32:45;21.70;;;4.43;;
63259;SDS011;49390;51.380;0.098;2023-12-28T03:35:13;29.83;;;5.53;;
63259;SDS011;49390;51.380;0.098;2023-12-28T03:37:42;17.25;;;4.38;;
63259;SDS011;49390;51.380;0.098;2023-12-28T03:40:10;22.05;;;4.72;;
63259;SDS011;49390;51.380;0.098;2023-12-28T03:42:38;27.45;;;5.75;;
63259;SDS011;49390;51.380;0.098;2023-12-28T03:45:07;23.38;;;5.82;;
63259;SDS011;49390;51.380;0.098;2023-12-28T03:47:35;16.55;;;4.68;;
63259;SDS011;49390;51.380;0.098;2023-12-28T03:50:03;17.33;;;4.50;;
63259;SDS011;49390;51.380;0.098;2023-12-28T03:52:31;17.13;;;4.20;;
63259;SDS011;49390;51.380;0.098;2023-12-28T03:54:59;17.10;;;3.85;;
63259;SDS011;49390;51.380;0.098;2023-12-28T03:57:27;22.50;;;4.43;;
63259;SDS011;49390;51.380;0.098;2023-12-28T03:59:55;21.55;;;4.82;;
63259;SDS011;49390;51.380;0.098;2023-12-28T04:02:24;20.00;;;5.00;;
63259;SDS011;49390;51.380;0.098;2023-12-28T04:04:54;23.92;;;5.75;;
63259;SDS011;49390;51.380;0.098;2023-12-28T04:07:23;26.73;;;5.38;;
63259;SDS011;49390;51.380;0.098;2023-12-28T04:09:52;19.27;;;5.50;;
63259;SDS011;49390;51.380;0.098;2023-12-28T04:12:20;23.23;;;5.68;;
63259;SDS011;49390;51.380;0.098;2023-12-28T04:14:47;17.02;;;4.28;;
63259;SDS011;49390;51.380;0.098;2023-12-28T04:17:15;23.58;;;5.72;;
63259;SDS011;49390;51.380;0.098;2023-12-28T04:19:43;24.70;;;5.28;;
63259;SDS011;49390;51.380;0.098;2023-12-28T04:22:11;22.65;;;4.80;;
63259;SDS011;49390;51.380;0.098;2023-12-28T04:24:39;22.00;;;4.53;;
63259;SDS011;49390;51.380;0.098;2023-12-28T04:27:07;21.42;;;5.00;;
63259;SDS011;49390;51.380;0.098;2023-12-28T04:29:35;19.45;;;5.68;;
63259;SDS011;49390;51.380;0.098;2023-12-28T04:32:03;17.27;;;4.85;;
63259;SDS011;49390;51.380;0.098;2023-12-28T04:34:30;21.02;;;5.53;;
63259;SDS011;49390;51.380;0.098;2023-12-28T04:36:58;24.58;;;4.78;;
63259;SDS011;49390;51.380;0.098;2023-12-28T04:39:26;22.75;;;5.13;;
63259;SDS011;49390;51.380;0.098;2023-12-28T04:41:54;17.50;;;5.50;;
63259;SDS011;49390;51.380;0.098;2023-12-28T04:44:22;18.88;;;4.95;;
63259;SDS011;49390;51.380;0.098;2023-12-28T04:46:50;21.90;;;4.50;;
63259;SDS011;49390;51.380;0.098;2023-12-28T04:49:18;28.30;;;5.63;;
63259;SDS011;49390;51.380;0.098;2023-12-28T04:51:46;19.80;;;4.07;;
63259;SDS011;49390;51.380;0.098;2023-12-28T04:54:13;18.15;;;4.53;;
63259;SDS011;49390;51.380;0.098;2023-12-28T04:56:42;21.95;;;4.82;;
63259;SDS011;49390;51.380;0.098;2023-12-28T04:59:10;23.45;;;5.72;;
63259;SDS011;49390;51.380;0.098;2023-12-28T05:01:44;23.17;;;4.97;;
63259;SDS011;49390;51.380;0.098;2023-12-28T05:04:12;17.92;;;5.93;;
63259;SDS011;49390;51.380;0.098;2023-12-28T05:06:44;18.73;;;4.85;;
63259;SDS011;49390;51.380;0.098;2023-12-28T05:09:13;18.80;;;4.18;;
63259;SDS011;49390;51.380;0.098;2023-12-28T05:11:41;16.42;;;3.72;;
63259;SDS011;49390;51.380;0.098;2023-12-28T05:14:09;22.98;;;4.65;;
63259;SDS011;49390;51.380;0.098;2023-12-28T05:16:37;12.98;;;4.18;;
63259;SDS011;49390;51.380;0.098;2023-12-28T05:19:05;18.35;;;4.10;;
63259;SDS011;49390;51.380;0.098;2023-12-28T05:21:33;19.33;;;4.80;;
63259;SDS011;49390;51.380;0.098;2023-12-28T05:24:01;21.20;;;4.50;;
63259;SDS011;49390;51.380;0.098;2023-12-28T05:26:29;21.77;;;3.97;;
63259;SDS011;49390;51.380;0.098;2023-12-28T05:28:56;14.88;;;3.70;;
63259;SDS011;49390;51.380;0.098;2023-12-28T05:31:24;16.65;;;3.72;;
63259;SDS011;49390;51.380;0.098;2023-12-28T05:33:52;20.35;;;3.90;;
63259;SDS011;49390;51.380;0.098;2023-12-28T05:36:20;14.52;;;5.00;;
63259;SDS011;49390;51.380;0.098;2023-12-28T05:38:48;19.17;;;4.60;;
63259;SDS011;49390;51.380;0.098;2023-12-28T05:41:16;18.70;;;5.55;;
63259;SDS011;49390;51.380;0.098;2023-12-28T05:43:44;16.98;;;4.35;;
63259;SDS011;49390;51.380;0.098;2023-12-28T05:46:12;17.55;;;4.07;;
63259;SDS011;49390;51.380;0.098;2023-12-28T05:48:39;17.20;;;3.80;;
63259;SDS011;49390;51.380;0.098;2023-12-28T05:51:07;18.13;;;4.00;;
63259;SDS011;49390;51.380;0.098;2023-12-28T05:53:35;26.73;;;5.03;;
63259;SDS011;49390;51.380;0.098;2023-12-28T05:56:03;25.25;;;5.03;;
63259;SDS011;49390;51.380;0.098;2023-12-28T05:58:31;25.10;;;4.53;;
63259;SDS011;49390;51.380;0.098;2023-12-28T06:00:59;17.85;;;4.88;;
63259;SDS011;49390;51.380;0.098;2023-12-28T06:03:27;20.33;;;4.85;;
63259;SDS011;49390;51.380;0.098;2023-12-28T06:05:56;21.42;;;4.55;;
63259;SDS011;49390;51.380;0.098;2023-12-28T06:08:24;18.35;;;4.40;;
63259;SDS011;49390;51.380;0.098;2023-12-28T06:10:54;19.05;;;4.28;;
63259;SDS011;49390;51.380;0.098;2023-12-28T06:13:22;21.95;;;4.53;;
63259;SDS011;49390;51.380;0.098;2023-12-28T06:15:50;25.23;;;4.68;;
63259;SDS011;49390;51.380;0.098;2023-12-28T06:18:17;15.10;;;4.45;;
63259;SDS011;49390;51.380;0.098;2023-12-28T06:20:46;14.93;;;3.83;;
63259;SDS011;49390;51.380;0.098;2023-12-28T06:23:13;14.55;;;4.18;;
63259;SDS011;49390;51.380;0.098;2023-12-28T06:25:41;16.00;;;3.67;;
63259;SDS011;49390;51.380;0.098;2023-12-28T06:28:09;17.15;;;3.53;;
63259;SDS011;49390;51.380;0.098;2023-12-28T06:30:37;13.88;;;3.38;;
63259;SDS011;49390;51.380;0.098;2023-12-28T06:33:07;15.65;;;2.83;;
63259;SDS011;49390;51.380;0.098;2023-12-28T06:35:35;12.65;;;3.22;;
63259;SDS011;49390;51.380;0.098;2023-12-28T06:38:03;12.27;;;3.47;;
63259;SDS011;49390;51.380;0.098;2023-12-28T06:40:31;13.32;;;3.20;;
63259;SDS011;49390;51.380;0.098;2023-12-28T06:42:59;13.75;;;3.25;;
63259;SDS011;49390;51.380;0.098;2023-12-28T06:45:27;15.70;;;3.85;;
63259;SDS011;49390;51.380;0.098;2023-12-28T06:47:55;16.38;;;3.83;;
63259;SDS011;49390;51.380;0.098;2023-12-28T06:50:24;13.02;;;3.40;;
63259;SDS011;49390;51.380;0.098;2023-12-28T06:52:51;20.60;;;3.97;;
63259;SDS011;49390;51.380;0.098;2023-12-28T06:55:19;20.92;;;4.80;;
63259;SDS011;49390;51.380;0.098;2023-12-28T06:57:47;19.70;;;4.32;;
63259;SDS011;49390;51.380;0.098;2023-12-28T07:02:18;16.02;;;4.38;;
63259;SDS011;49390;51.380;0.098;2023-12-28T07:04:46;19.40;;;4.15;;
63259;SDS011;49390;51.380;0.098;2023-12-28T07:07:14;23.05;;;4.85;;
63259;SDS011;49390;51.380;0.098;2023-12-28T07:09:42;23.58;;;4.63;;
63259;SDS011;49390;51.380;0.098;2023-12-28T07:12:09;19.90;;;4.88;;
63259;SDS011;49390;51.380;0.098;2023-12-28T07:14:37;21.90;;;5.05;;
63259;SDS011;49390;51.380;0.098;2023-12-28T07:17:05;23.42;;;5.45;;
63259;SDS011;49390;51.380;0.098;2023-12-28T07:19:33;25.55;;;5.45;;
63259;SDS011;49390;51.380;0.098;2023-12-28T07:22:01;22.80;;;5.47;;
63259;SDS011;49390;51.380;0.098;2023-12-28T07:24:29;22.55;;;5.05;;
63259;SDS011;49390;51.380;0.098;2023-12-28T07:26:57;22.70;;;4.47;;
63259;SDS011;49390;51.380;0.098;2023-12-28T07:29:25;26.65;;;5.50;;
63259;SDS011;49390;51.380;0.098;2023-12-28T07:31:54;22.77;;;5.28;;
63259;SDS011;49390;51.380;0.098;2023-12-28T07:34:21;32.38;;;5.80;;
63259;SDS011;49390;51.380;0.098;2023-12-28T07:36:49;26.15;;;6.10;;
63259;SDS011;49390;51.380;0.098;2023-12-28T07:39:17;20.95;;;5.30;;
63259;SDS011;49390;51.380;0.098;2023-12-28T07:41:46;24.63;;;6.00;;
63259;SDS011;49390;51.380;0.098;2023-12-28T07:44:14;19.75;;;5.60;;
63259;SDS011;49390;51.380;0.098;2023-12-28T07:46:43;21.92;;;5.10;;
63259;SDS011;49390;51.380;0.098;2023-12-28T07:49:11;21.85;;;4.90;;
63259;SDS011;49390;51.380;0.098;2023-12-28T07:51:39;31.52;;;5.65;;
63259;SDS011;49390;51.380;0.098;2023-12-28T07:54:07;23.58;;;5.07;;
63259;SDS011;49390;51.380;0.098;2023-12-28T07:56:35;23.95;;;5.45;;
63259;SDS011;49390;51.380;0.098;2023-12-28T07:59:03;21.05;;;4.80;;
63259;SDS011;49390;51.380;0.098;2023-12-28T08:01:31;23.73;;;5.53;;
63259;SDS011;49390;51.380;0.098;2023-12-28T08:04:00;24.95;;;5.25;;
63259;SDS011;49390;51.380;0.098;2023-12-28T08:06:29;24.30;;;5.20;;
63259;SDS011;49390;51.380;0.098;2023-12-28T08:09:00;18.40;;;5.90;;
63259;SDS011;49390;51.380;0.098;2023-12-28T08:11:28;33.45;;;7.03;;
63259;SDS011;49390;51.380;0.098;2023-12-28T08:13:56;28.65;;;5.72;;
63259;SDS011;49390;51.380;0.098;2023-12-28T08:16:23;20.80;;;4.80;;
63259;SDS011;49390;51.380;0.098;2023-12-28T08:18:51;26.88;;;4.93;;
63259;SDS011;49390;51.380;0.098;2023-12-28T08:21:19;26.55;;;4.90;;
63259;SDS011;49390;51.380;0.098;2023-12-28T08:23:47;18.98;;;5.65;;
63259;SDS011;49390;51.380;0.098;2023-12-28T08:26:15;17.67;;;5.32;;
63259;SDS011;49390;51.380;0.098;2023-12-28T08:28:43;22.70;;;5.25;;
63259;SDS011;49390;51.380;0.098;2023-12-28T08:31:10;19.63;;;5.00;;
63259;SDS011;49390;51.380;0.098;2023-12-28T08:33:40;27.75;;;5.65;;
63259;SDS011;49390;51.380;0.098;2023-12-28T08:36:08;28.88;;;6.22;;
63259;SDS011;49390;51.380;0.098;2023-12-28T08:38:36;27.05;;;5.45;;
63259;SDS011;49390;51.380;0.098;2023-12-28T08:41:04;24.48;;;5.40;;
63259;SDS011;49390;51.380;0.098;2023-12-28T08:43:36;28.90;;;5.30;;
63259;SDS011;49390;51.380;0.098;2023-12-28T08:46:07;23.67;;;5.43;;
63259;SDS011;49390;51.380;0.098;2023-12-28T08:48:35;23.02;;;5.93;;
63259;SDS011;49390;51.380;0.098;2023-12-28T08:51:03;19.75;;;4.57;;
63259;SDS011;49390;51.380;0.098;2023-12-28T08:53:31;26.88;;;5.93;;
63259;SDS011;49390;51.380;0.098;2023-12-28T08:55:59;26.70;;;6.68;;
63259;SDS011;49390;51.380;0.098;2023-12-28T08:58:27;21.98;;;5.22;;
63259;SDS011;49390;51.380;0.098;2023-12-28T09:00:54;22.48;;;4.90;;
63259;SDS011;49390;51.380;0.098;2023-12-28T09:03:22;21.58;;;4.63;;
63259;SDS011;49390;51.380;0.098;2023-12-28T09:05:51;30.88;;;5.70;;
63259;SDS011;49390;51.380;0.098;2023-12-28T09:08:19;29.30;;;5.43;;
63259;SDS011;49390;51.380;0.098;2023-12-28T09:10:47;22.65;;;5.80;;
63259;SDS011;49390;51.380;0.098;2023-12-28T09:13:15;29.08;;;6.30;;
63259;SDS011;49390;51.380;0.098;2023-12-28T09:15:44;27.05;;;7.80;;
63259;SDS011;49390;51.380;0.098;2023-12-28T09:18:13;19.77;;;5.07;;
63259;SDS011;49390;51.380;0.098;2023-12-28T09:20:41;18.95;;;4.60;;
63259;SDS011;49390;51.380;0.098;2023-12-28T09:23:09;25.10;;;4.97;;
63259;SDS011;49390;51.380;0.098;2023-12-28T09:25:37;26.23;;;5.88;;
63259;SDS011;49390;51.380;0.098;2023-12-28T09:28:07;24.00;;;5.35;;
63259;SDS011;49390;51.380;0.098;2023-12-28T09:30:34;23.80;;;5.80;;
63259;SDS011;49390;51.380;0.098;2023-12-28T09:33:02;21.65;;;4.28;;
63259;SDS011;49390;51.380;0.098;2023-12-28T09:35:31;23.52;;;5.18;;
63259;SDS011;49390;51.380;0.098;2023-12-28T09:37:58;19.80;;;4.55;;
63259;SDS011;49390;51.380;0.098;2023-12-28T09:42:25;19.42;;;4.20;;
63259;SDS011;49390;51.380;0.098;2023-12-28T09:44:56;20.83;;;4.97;;
63259;SDS011;49390;51.380;0.098;2023-12-28T09:47:24;19.88;;;4.88;;
63259;SDS011;49390;51.380;0.098;2023-12-28T09:49:52;26.05;;;5.07;;
63259;SDS011;49390;51.380;0.098;2023-12-28T09:52:20;17.15;;;3.90;;
63259;SDS011;49390;51.380;0.098;2023-12-28T09:54:48;23.52;;;4.63;;
63259;SDS011;49390;51.380;0.098;2023-12-28T09:57:15;18.55;;;5.05;;
63259;SDS011;49390;51.380;0.098;2023-12-28T09:59:44;18.05;;;4.22;;
63259;SDS011;49390;51.380;0.098;2023-12-28T10:02:12;15.90;;;4.18;;
63259;SDS011;49390;51.380;0.098;2023-12-28T10:04:41;44.67;;;6.72;;
63259;SDS011;49390;51.380;0.098;2023-12-28T10:07:08;18.88;;;4.60;;
63259;SDS011;49390;51.380;0.098;2023-12-28T10:09:37;18.52;;;4.75;;
63259;SDS011;49390;51.380;0.098;2023-12-28T10:12:04;18.40;;;4.97;;
63259;SDS011;49390;51.380;0.098;2023-12-28T10:14:33;14.45;;;4.20;;
63259;SDS011;49390;51.380;0.098;2023-12-28T10:17:02;16.88;;;4.05;;
63259;SDS011;49390;51.380;0.098;2023-12-28T10:19:30;24.42;;;5.25;;
63259;SDS011;49390;51.380;0.098;2023-12-28T10:21:59;20.83;;;5.97;;
63259;SDS011;49390;51.380;0.098;2023-12-28T10:24:27;20.52;;;3.83;;
63259;SDS011;49390;51.380;0.098;2023-12-28T10:26:55;17.15;;;4.30;;
63259;SDS011;49390;51.380;0.098;2023-12-28T10:29:26;16.75;;;3.70;;
63259;SDS011;49390;51.380;0.098;2023-12-28T10:31:54;17.25;;;5.07;;
63259;SDS011;49390;51.380;0.098;2023-12-28T10:34:22;20.60;;;4.63;;
63259;SDS011;49390;51.380;0.098;2023-12-28T10:36:52;19.42;;;4.30;;
63259;SDS011;49390;51.380;0.098;2023-12-28T10:39:20;16.65;;;3.70;;
63259;SDS011;49390;51.380;0.098;2023-12-28T10:41:51;21.77;;;4.67;;
63259;SDS011;49390;51.380;0.098;2023-12-28T10:44:23;15.60;;;3.90;;
63259;SDS011;49390;51.380;0.098;2023-12-28T10:46:55;20.10;;;3.90;;
63259;SDS011;49390;51.380;0.098;2023-12-28T10:49:28;21.45;;;4.70;;
63259;SDS011;49390;51.380;0.098;2023-12-28T10:52:00;18.25;;;4.22;;
63259;SDS011;49390;51.380;0.098;2023-12-28T11:02:41;19.17;;;4.45;;
63259;SDS011;49390;51.380;0.098;2023-12-28T11:05:15;15.73;;;4.15;;
63259;SDS011;49390;51.380;0.098;2023-12-28T11:07:44;16.25;;;3.70;;
63259;SDS011;49390;51.380;0.098;2023-12-28T11:10:15;19.17;;;3.90;;
63259;SDS011;49390;51.380;0.098;2023-12-28T11:12:44;21.75;;;4.32;;
63259;SDS011;49390;51.380;0.098;2023-12-28T11:15:13;14.50;;;3.72;;
63259;SDS011;49390;51.380;0.098;2023-12-28T11:17:41;17.23;;;3.97;;
63259;SDS011;49390;51.380;0.098;2023-12-28T11:20:11;17.60;;;3.75;;
63259;SDS011;49390;51.380;0.098;2023-12-28T11:22:41;13.85;;;3.70;;
63259;SDS011;49390;51.380;0.098;2023-12-28T11:25:16;17.65;;;3.80;;
63259;SDS011;49390;51.380;0.098;2023-12-28T11:27:45;18.35;;;5.10;;
63259;SDS011;49390;51.380;0.098;2023-12-28T11:30:14;18.05;;;3.40;;
63259;SDS011;49390;51.380;0.098;2023-12-28T11:32:42;18.77;;;4.05;;
63259;SDS011;49390;51.380;0.098;2023-12-28T11:35:11;21.27;;;4.15;;
63259;SDS011;49390;51.380;0.098;2023-12-28T11:37:45;14.27;;;4.07;;
63259;SDS011;49390;51.380;0.098;2023-12-28T11:40:17;13.90;;;4.32;;
63259;SDS011;49390;51.380;0.098;2023-12-28T11:42:50;16.85;;;4.05;;
63259;SDS011;49390;51.380;0.098;2023-12-28T11:45:19;16.42;;;3.88;;
63259;SDS011;49390;51.380;0.098;2023-12-28T11:47:58;15.25;;;3.45;;
63259;SDS011;49390;51.380;0.098;2023-12-28T11:50:28;20.48;;;3.97;;
63259;SDS011;49390;51.380;0.098;2023-12-28T11:52:56;18.33;;;3.92;;
63259;SDS011;49390;51.380;0.098;2023-12-28T11:55:24;21.10;;;4.05;;
63259;SDS011;49390;51.380;0.098;2023-12-28T11:57:52;13.65;;;3.40;;
63259;SDS011;49390;51.380;0.098;2023-12-28T12:00:20;13.50;;;3.40;;
63259;SDS011;49390;51.380;0.098;2023-12-28T12:02:52;17.83;;;3.67;;
63259;SDS011;49390;51.380;0.098;2023-12-28T12:05:20;11.98;;;3.42;;
63259;SDS011;49390;51.380;0.098;2023-12-28T12:07:49;21.15;;;4.85;;
63259;SDS011;49390;51.380;0.098;2023-12-28T12:10:17;15.50;;;4.13;;
63259;SDS011;49390;51.380;0.098;2023-12-28T12:12:45;14.85;;;3.90;;
63259;SDS011;49390;51.380;0.098;2023-12-28T12:15:13;17.10;;;3.78;;
63259;SDS011;49390;51.380;0.098;2023-12-28T12:17:40;21.48;;;5.50;;
63259;SDS011;49390;51.380;0.098;2023-12-28T12:20:08;17.58;;;3.80;;
63259;SDS011;49390;51.380;0.098;2023-12-28T12:22:36;13.82;;;3.55;;
63259;SDS011;49390;51.380;0.098;2023-12-28T12:25:05;13.82;;;3.63;;
63259;SDS011;49390;51.380;0.098;2023-12-28T12:27:35;15.93;;;3.67;;
63259;SDS011;49390;51.380;0.098;2023-12-28T12:30:06;18.50;;;3.78;;
63259;SDS011;49390;51.380;0.098;2023-12-28T12:32:34;20.08;;;4.00;;
63259;SDS011;49390;51.380;0.098;2023-12-28T12:35:10;13.65;;;3.50;;
63259;SDS011;49390;51.380;0.098;2023-12-28T12:37:38;17.35;;;3.88;;
63259;SDS011;49390;51.380;0.098;2023-12-28T12:40:07;17.30;;;4.40;;
63259;SDS011;49390;51.380;0.098;2023-12-28T12:42:37;16.05;;;4.80;;
63259;SDS011;49390;51.380;0.098;2023-12-28T12:45:05;12.88;;;3.63;;
63259;SDS011;49390;51.380;0.098;2023-12-28T12:47:34;19.85;;;4.22;;
63259;SDS011;49390;51.380;0.098;2023-12-28T12:50:02;12.32;;;3.30;;
63259;SDS011;49390;51.380;0.098;2023-12-28T12:52:30;22.15;;;4.00;;
63259;SDS011;49390;51.380;0.098;2023-12-28T12:54:58;19.92;;;3.78;;
63259;SDS011;49390;51.380;0.098;2023-12-28T12:57:26;13.50;;;3.58;;
63259;SDS011;49390;51.380;0.098;2023-12-28T12:59:54;14.25;;;3.65;;
63259;SDS011;49390;51.380;0.098;2023-12-28T13:02:23;14.90;;;4.00;;
63259;SDS011;49390;51.380;0.098;2023-12-28T13:07:16;14.82;;;4.60;;
63259;SDS011;49390;51.380;0.098;2023-12-28T13:09:44;12.60;;;4.18;;
63259;SDS011;49390;51.380;0.098;2023-12-28T13:12:12;13.38;;;4.20;;
63259;SDS011;49390;51.380;0.098;2023-12-28T13:14:40;13.77;;;3.17;;
63259;SDS011;49390;51.380;0.098;2023-12-28T13:17:08;12.60;;;4.60;;
63259;SDS011;49390;51.380;0.098;2023-12-28T13:19:36;17.40;;;2.97;;
63259;SDS011;49390;51.380;0.098;2023-12-28T13:22:04;10.20;;;2.63;;
63259;SDS011;49390;51.380;0.098;2023-12-28T13:24:32;17.30;;;3.33;;
63259;SDS011;49390;51.380;0.098;2023-12-28T13:27:00;15.18;;;3.60;;
63259;SDS011;49390;51.380;0.098;2023-12-28T13:29:28;11.90;;;3.42;;
63259;SDS011;49390;51.380;0.098;2023-12-28T13:31:57;13.68;;;3.35;;
63259;SDS011;49390;51.380;0.098;2023-12-28T13:34:25;17.75;;;3.63;;
63259;SDS011;49390;51.380;0.098;2023-12-28T13:36:56;12.90;;;3.25;;
63259;SDS011;49390;51.380;0.098;2023-12-28T13:39:24;14.57;;;3.53;;
63259;SDS011;49390;51.380;0.098;2023-12-28T13:44:23;13.93;;;3.05;;
63259;SDS011;49390;51.380;0.098;2023-12-28T13:46:52;18.02;;;3.90;;
63259;SDS011;49390;51.380;0.098;2023-12-28T13:49:21;17.42;;;3.58;;
63259;SDS011;49390;51.380;0.098;2023-12-28T13:51:49;16.65;;;3.85;;
63259;SDS011;49390;51.380;0.098;2023-12-28T13:54:17;15.38;;;3.50;;
63259;SDS011;49390;51.380;0.098;2023-12-28T13:56:46;15.13;;;3.65;;
63259;SDS011;49390;51.380;0.098;2023-12-28T13:59:15;9.52;;;3.20;;
63259;SDS011;49390;51.380;0.098;2023-12-28T14:01:43;12.15;;;3.63;;
63259;SDS011;49390;51.380;0.098;2023-12-28T14:04:12;13.25;;;3.35;;
63259;SDS011;49390;51.380;0.098;2023-12-28T14:06:40;19.88;;;4.10;;
63259;SDS011;49390;51.380;0.098;2023-12-28T14:09:08;16.15;;;3.78;;
63259;SDS011;49390;51.380;0.098;2023-12-28T14:11:35;18.88;;;3.58;;
63259;SDS011;49390;51.380;0.098;2023-12-28T14:14:04;12.48;;;3.78;;
63259;SDS011;49390;51.380;0.098;2023-12-28T14:19:01;15.30;;;3.92;;
63259;SDS011;49390;51.380;0.098;2023-12-28T14:21:33;15.68;;;3.78;;
63259;SDS011;49390;51.380;0.098;2023-12-28T14:24:04;14.27;;;3.60;;
63259;SDS011;49390;51.380;0.098;2023-12-28T14:26:33;19.60;;;3.83;;
63259;SDS011;49390;51.380;0.098;2023-12-28T14:29:01;12.85;;;3.28;;
63259;SDS011;49390;51.380;0.098;2023-12-28T14:31:33;13.45;;;3.40;;
63259;SDS011;49390;51.380;0.098;2023-12-28T14:34:02;12.73;;;2.75;;
63259;SDS011;49390;51.380;0.098;2023-12-28T14:36:31;13.98;;;3.50;;
63259;SDS011;49390;51.380;0.098;2023-12-28T14:39:01;15.67;;;3.27;;
63259;SDS011;49390;51.380;0.098;2023-12-28T14:41:36;10.75;;;3.25;;
63259;SDS011;49390;51.380;0.098;2023-12-28T14:44:09;11.00;;;2.70;;
63259;SDS011;49390;51.380;0.098;2023-12-28T14:46:37;12.85;;;3.50;;
63259;SDS011;49390;51.380;0.098;2023-12-28T14:49:05;12.23;;;2.80;;
63259;SDS011;49390;51.380;0.098;2023-12-28T14:51:33;15.10;;;4.40;;
63259;SDS011;49390;51.380;0.098;2023-12-28T14:54:01;17.02;;;3.03;;
63259;SDS011;49390;51.380;0.098;2023-12-28T14:56:29;13.10;;;2.90;;
63259;SDS011;49390;51.380;0.098;2023-12-28T14:59:11;12.63;;;3.83;;
63259;SDS011;49390;51.380;0.098;2023-12-28T15:01:39;11.85;;;2.85;;
63259;SDS011;49390;51.380;0.098;2023-12-28T15:04:07;8.00;;;2.67;;
63259;SDS011;49390;51.380;0.098;2023-12-28T15:06:36;13.57;;;2.88;;